createdAt,value
2022-09-03T00:05:00.320Z,101693.44
2022-09-03T00:10:09.522Z,101694.25
2022-09-03T00:15:20.359Z,101690.53
2022-09-03T00:20:30.387Z,101687.81
2022-09-03T00:25:47.802Z,101691.75
2022-09-03T00:30:53.974Z,101694.19
2022-09-03T00:36:04.186Z,101692.28
2022-09-03T00:41:14.852Z,101694.34
2022-09-03T00:46:25.824Z,101692.47
2022-09-03T00:51:38.295Z,101692.69
2022-09-03T00:57:05.455Z,101686.41
2022-09-03T01:02:17.286Z,101690.34
2022-09-03T01:07:36.668Z,101680.38
2022-09-03T01:12:48.910Z,101685.97
2022-09-03T01:18:17.528Z,101684.28
2022-09-03T01:23:20.384Z,101692.16
2022-09-03T01:28:23.767Z,101694.81
2022-09-03T01:33:40.553Z,101696.44
2022-09-03T01:38:52.302Z,101692.88
2022-09-03T01:44:32.845Z,101691.63
2022-09-03T01:49:41.906Z,101692.63
2022-09-03T01:55:06.210Z,101689.66
2022-09-03T02:00:13.784Z,101689.44
2022-09-03T02:05:19.451Z,101689.22
2022-09-03T02:10:31.669Z,101692.69
2022-09-03T02:15:41.295Z,101682.66
2022-09-03T02:20:47.972Z,101691.16
2022-09-03T02:25:54.917Z,101690.25
2022-09-03T02:30:59.053Z,101689.81
2022-09-03T02:36:03.712Z,101682.31
2022-09-03T02:41:05.615Z,101688.09
2022-09-03T02:46:10.649Z,101673.16
2022-09-03T02:51:15.212Z,101684.72
2022-09-03T02:56:24.443Z,101680.94
2022-09-03T03:01:28.536Z,101691.72
2022-09-03T03:06:33.331Z,101686.91
2022-09-03T03:11:40.886Z,101682.94
2022-09-03T03:16:44.821Z,101691.81
2022-09-03T03:21:46.586Z,101694.88
2022-09-03T03:26:48.760Z,101693.81
2022-09-03T03:31:50.612Z,101689.16
2022-09-03T03:37:00.176Z,101688.53
2022-09-03T03:42:04.119Z,101695.16
2022-09-03T03:47:08.913Z,101702.13
2022-09-03T03:52:10.651Z,101696.31
2022-09-03T03:57:14.630Z,101698.53
2022-09-03T04:02:21.579Z,101697.25
2022-09-03T04:07:25.731Z,101688.25
2022-09-03T04:12:35.551Z,101695.22
2022-09-03T04:17:40.530Z,101695.63
2022-09-03T04:22:44.597Z,101697.03
2022-09-03T04:27:49.700Z,101693.69
2022-09-03T04:32:56.191Z,101696.91
2022-09-03T04:38:00.603Z,101692.94
2022-09-03T04:43:10.737Z,101685.88
2022-09-03T04:48:14.748Z,101693.13
2022-09-03T04:53:20.900Z,101696.66
2022-09-03T04:58:22.673Z,101686.91
2022-09-03T05:03:27.838Z,101696.66
2022-09-03T05:08:29.521Z,101684.84
2022-09-03T05:13:35.214Z,101684.66
2022-09-03T05:18:39.597Z,101681.44
2022-09-03T05:23:47.001Z,101682.91
2022-09-03T05:28:49.038Z,101680.47
2022-09-03T05:33:52.749Z,101677.84
2022-09-03T05:38:55.886Z,101675.63
2022-09-03T05:44:00.126Z,101685.00
2022-09-03T05:49:03.499Z,101682.53
2022-09-03T05:54:11.320Z,101684.28
2022-09-03T05:59:13.866Z,101674.81
2022-09-03T06:04:16.876Z,101668.78
2022-09-03T06:09:24.284Z,101664.59
2022-09-03T06:14:28.386Z,101666.44
2022-09-03T06:19:30.106Z,101665.25
2022-09-03T06:24:34.071Z,101669.25
2022-09-03T06:29:37.028Z,101666.13
2022-09-03T06:34:42.050Z,101661.44
2022-09-03T06:39:46.568Z,101674.09
2022-09-03T06:44:51.352Z,101668.72
2022-09-03T06:49:55.328Z,101672.59
2022-09-03T06:55:00.042Z,101670.06
2022-09-03T07:00:07.142Z,101667.47
2022-09-03T07:05:10.228Z,101659.50
2022-09-03T07:10:16.257Z,101657.88
2022-09-03T07:15:22.579Z,101670.97
2022-09-03T07:20:31.226Z,101667.31
2022-09-03T07:25:35.201Z,101668.78
2022-09-03T07:30:36.872Z,101672.72
2022-09-03T07:35:39.133Z,101670.69
2022-09-03T07:40:43.945Z,101680.69
2022-09-03T07:45:55.619Z,101669.09
2022-09-03T07:51:03.909Z,101664.94
2022-09-03T07:56:07.577Z,101662.44
2022-09-03T08:01:16.106Z,101662.25
2022-09-03T08:06:22.568Z,101664.75
2022-09-03T08:11:27.702Z,101658.47
2022-09-03T08:16:35.581Z,101659.28
2022-09-03T08:21:42.625Z,101663.34
2022-09-03T08:26:51.793Z,101677.66
2022-09-03T08:31:59.697Z,101678.19
2022-09-03T08:37:01.948Z,101679.31
2022-09-03T08:42:31.598Z,101659.84
2022-09-03T08:47:38.918Z,101670.16
2022-09-03T08:52:50.162Z,101674.22
2022-09-03T08:58:04.024Z,101674.28
2022-09-03T09:03:28.050Z,101670.75
2022-09-03T09:08:35.803Z,101677.66
2022-09-03T09:13:45.072Z,101680.00
2022-09-03T09:19:03.201Z,101672.09
2022-09-03T09:24:10.850Z,101672.06
2022-09-03T09:29:18.551Z,101672.75
2022-09-03T09:34:24.680Z,101675.22
2022-09-03T09:39:32.101Z,101669.69
2022-09-03T09:44:36.218Z,101664.41
2022-09-03T09:49:54.082Z,101675.41
2022-09-03T09:55:17.785Z,101666.81
2022-09-03T10:00:30.298Z,101656.31
2022-09-03T10:05:36.810Z,101654.41
2022-09-03T10:10:43.460Z,101660.81
2022-09-03T10:15:48.238Z,101646.75
2022-09-03T10:21:12.585Z,101643.88
2022-09-03T10:26:29.333Z,101639.16
2022-09-03T10:32:02.247Z,101644.06
2022-09-03T10:37:23.631Z,101641.22
2022-09-03T10:42:49.145Z,101651.97
2022-09-03T10:48:08.046Z,101636.91
2022-09-03T10:53:34.511Z,101633.78
2022-09-03T10:58:54.948Z,101636.69
2022-09-03T11:04:23.983Z,101624.91
2022-09-03T11:09:49.896Z,101624.91
2022-09-03T11:15:00.772Z,101615.41
2022-09-03T11:20:14.690Z,101619.41
2022-09-03T11:25:19.026Z,101624.75
2022-09-03T11:30:41.525Z,101615.94
2022-09-03T11:35:45.785Z,101621.03
2022-09-03T11:40:56.923Z,101610.97
2022-09-03T11:46:11.936Z,101608.22
2022-09-03T11:51:30.112Z,101603.16
2022-09-03T11:56:35.365Z,101599.69
2022-09-03T12:01:37.684Z,101592.44
2022-09-03T12:07:19.069Z,101588.72
2022-09-03T12:12:41.613Z,101590.41
2022-09-03T12:18:13.166Z,101584.50
2022-09-03T12:23:50.507Z,101585.97
2022-09-03T12:28:57.755Z,101587.66
2022-09-03T12:34:16.214Z,101574.50
2022-09-03T12:44:47.905Z,101582.72
2022-09-03T12:49:52.115Z,101582.28
2022-09-03T12:55:01.671Z,101577.97
2022-09-03T13:00:12.694Z,101566.47
2022-09-03T13:05:31.095Z,101562.59
2022-09-03T13:10:42.010Z,101566.75
2022-09-03T13:15:57.170Z,101547.81
2022-09-03T13:21:32.148Z,101551.72
2022-09-03T13:27:07.194Z,101552.72
2022-09-03T13:32:23.559Z,101546.34
2022-09-03T13:37:34.374Z,101548.75
2022-09-03T13:42:39.659Z,101546.38
2022-09-03T13:48:05.407Z,101531.53
2022-09-03T13:53:25.162Z,101537.66
2022-09-03T13:58:34.338Z,101532.31
2022-09-03T14:03:48.569Z,101526.69
2022-09-03T14:09:02.516Z,101535.28
2022-09-03T14:14:28.151Z,101528.19
2022-09-03T14:19:37.440Z,101525.06
2022-09-03T14:24:57.778Z,101521.03
2022-09-03T14:30:17.893Z,101519.88
2022-09-03T14:35:48.458Z,101512.31
2022-09-03T14:40:56.632Z,101513.13
2022-09-03T14:46:23.572Z,101504.59
2022-09-03T14:51:58.963Z,101512.75
2022-09-03T14:57:40.558Z,101508.03
2022-09-03T15:03:24.296Z,101501.91
2022-09-03T15:08:40.135Z,101500.19
2022-09-03T15:14:05.631Z,101511.00
2022-09-03T15:19:19.567Z,101516.72
2022-09-03T15:24:32.964Z,101508.00
2022-09-03T15:30:09.348Z,101508.31
2022-09-03T15:35:16.773Z,101514.47
2022-09-03T15:40:33.527Z,101514.63
2022-09-03T15:45:48.530Z,101514.75
2022-09-03T15:51:25.588Z,101515.56
2022-09-03T15:56:47.757Z,101522.56
2022-09-03T16:02:10.968Z,101524.66
2022-09-03T16:07:27.229Z,101518.16
2022-09-03T16:12:53.962Z,101522.44
2022-09-03T16:18:18.893Z,101518.34
2022-09-03T16:23:40.814Z,101533.59
2022-09-03T16:28:59.946Z,101523.63
2022-09-03T16:34:10.090Z,101525.66
2022-09-03T16:39:55.713Z,101521.63
2022-09-03T16:45:31.008Z,101532.09
2022-09-03T16:50:40.721Z,101540.81
2022-09-03T16:56:35.308Z,101539.81
2022-09-03T17:01:39.743Z,101541.00
2022-09-03T17:07:07.167Z,101533.91
2022-09-03T17:12:26.468Z,101535.81
2022-09-03T17:17:43.496Z,101533.31
2022-09-03T17:23:09.792Z,101540.13
2022-09-03T17:28:39.292Z,101544.13
2022-09-03T17:34:20.021Z,101544.28
2022-09-03T17:39:43.709Z,101548.78
2022-09-03T17:45:15.305Z,101557.94
2022-09-03T17:50:30.429Z,101558.91
2022-09-03T17:55:53.531Z,101552.47
2022-09-03T18:01:11.250Z,101568.97
2022-09-03T18:06:23.159Z,101574.81
2022-09-03T18:11:35.909Z,101577.88
2022-09-03T18:16:56.806Z,101591.25
2022-09-03T18:22:20.399Z,101596.41
2022-09-03T18:28:00.655Z,101602.75
2022-09-03T18:33:21.231Z,101608.75
2022-09-03T18:38:46.066Z,101611.81
2022-09-03T18:44:17.902Z,101623.28
2022-09-03T18:50:05.887Z,101627.41
2022-09-03T18:55:42.567Z,101624.41
2022-09-03T19:01:31.024Z,101633.78
2022-09-03T19:06:59.125Z,101645.91
2022-09-03T19:12:28.754Z,101641.06
2022-09-03T19:18:15.359Z,101651.97
2022-09-03T19:23:37.922Z,101659.25
2022-09-03T19:29:01.754Z,101661.50
2022-09-03T19:34:44.846Z,101666.41
2022-09-03T19:40:13.701Z,101670.56
2022-09-03T19:45:53.134Z,101675.72
2022-09-03T19:51:25.804Z,101672.97
2022-09-03T19:56:47.813Z,101686.97
2022-09-03T20:02:11.369Z,101696.75
2022-09-03T20:07:31.646Z,101691.38
2022-09-03T20:12:40.544Z,101694.53
2022-09-03T20:18:13.126Z,101706.44
2022-09-03T20:23:29.570Z,101699.19
2022-09-03T20:28:55.585Z,101698.53
2022-09-03T20:34:38.640Z,101697.84
2022-09-03T20:39:59.153Z,101709.28
2022-09-03T20:45:19.797Z,101717.97
2022-09-03T20:50:33.866Z,101722.06
2022-09-03T20:55:45.100Z,101726.75
2022-09-03T21:00:49.276Z,101723.66
2022-09-03T21:06:06.840Z,101723.50
2022-09-03T21:11:19.904Z,101723.06
2022-09-03T21:16:24.690Z,101719.13
2022-09-03T21:21:36.040Z,101727.09
2022-09-03T21:26:46.182Z,101730.50
2022-09-03T21:32:11.455Z,101728.28
2022-09-03T21:37:15.995Z,101738.59
2022-09-03T21:42:27.360Z,101735.03
2022-09-03T21:47:33.874Z,101738.84
2022-09-03T21:52:54.697Z,101748.50
2022-09-03T21:58:04.926Z,101750.84
2022-09-03T22:03:10.360Z,101750.03
2022-09-03T22:08:28.570Z,101752.59
2022-09-03T22:13:35.927Z,101766.84
2022-09-03T22:18:44.128Z,101773.28
2022-09-03T22:24:19.035Z,101771.25
2022-09-03T22:29:51.840Z,101782.75
2022-09-03T22:35:02.839Z,101777.78
2022-09-03T22:40:31.569Z,101776.53
2022-09-03T22:45:48.526Z,101770.28
2022-09-03T22:51:03.009Z,101777.63
2022-09-03T22:56:08.341Z,101777.25
2022-09-03T23:01:38.269Z,101775.59
2022-09-03T23:06:51.074Z,101773.13
2022-09-03T23:11:58.404Z,101772.97
2022-09-03T23:22:51.494Z,101776.16
2022-09-03T23:28:06.115Z,101774.34
2022-09-03T23:33:09.462Z,101781.66
2022-09-03T23:38:26.215Z,101773.38
2022-09-03T23:44:00.578Z,101768.19
2022-09-03T23:49:11.658Z,101756.94
2022-09-03T23:54:37.422Z,101750.69
2022-09-03T23:59:41.489Z,101758.63
